Time,TemperatureF,DewpointF,PressureIn,WindDirection,WindDirectionDegrees,WindSpeedMPH,WindSpeedGustMPH,Humidity,HourlyPrecipIn,Conditions,Clouds,dailyrainin,SolarRadiationWatts/m^2,SoftwareType,DateUTC
2013-03-28 14:52:00,43.0,25.0,-100.00,West,280,8.0,15.0,48,-99.99,,,0.00,324.000000,,2013-03-28 18:52:00,
2013-03-28 15:02:00,43.0,25.0,-100.00,West,280,8.0,15.0,48,-99.99,,,0.00,324.000000,,2013-03-28 19:02:00,
2013-03-28 15:12:00,43.0,25.0,-100.00,West,280,8.0,15.0,48,-99.99,,,0.00,324.000000,,2013-03-28 19:12:00,
2013-03-28 15:43:00,42.0,22.0,-100.00,WNW,289,7.0,14.0,45,0.00,,,0.00,231.000000,,2013-03-28 19:43:00,
2013-03-28 15:52:00,42.0,22.0,-100.00,WNW,289,7.0,14.0,45,0.00,,,0.00,231.000000,,2013-03-28 19:52:00,
2013-03-28 16:03:00,42.0,22.0,-100.00,WNW,289,7.0,14.0,45,0.00,,,0.00,231.000000,,2013-03-28 20:03:00,
2013-03-28 16:12:00,42.0,22.0,-100.00,WNW,289,7.0,14.0,45,0.00,,,0.00,231.000000,,2013-03-28 20:12:00,
2013-03-28 16:42:00,44.0,23.0,-100.00,West,279,8.0,16.0,44,0.00,,,0.00,180.000000,,2013-03-28 20:42:00,
2013-03-28 16:53:00,44.0,23.0,-100.00,West,279,8.0,16.0,44,0.00,,,0.00,180.000000,,2013-03-28 20:53:00,
2013-03-28 17:03:00,44.0,23.0,-100.00,West,279,8.0,16.0,44,0.00,,,0.00,180.000000,,2013-03-28 21:03:00,
2013-03-28 17:12:00,44.0,23.0,-100.00,West,279,8.0,16.0,44,0.00,,,0.00,180.000000,,2013-03-28 21:12:00,
2013-03-28 17:43:00,44.0,23.0,-100.00,WNW,293,5.0,15.0,44,0.00,,,0.00,171.000000,,2013-03-28 21:43:00,
2013-03-28 17:53:00,44.0,23.0,-100.00,WNW,293,5.0,15.0,44,0.00,,,0.00,171.000000,,2013-03-28 21:53:00,
2013-03-28 18:03:00,44.0,23.0,-100.00,WNW,293,5.0,15.0,44,0.00,,,0.00,171.000000,,2013-03-28 22:03:00,
2013-03-28 18:13:00,44.0,23.0,-100.00,WNW,293,5.0,15.0,44,0.00,,,0.00,171.000000,,2013-03-28 22:13:00,
2013-03-28 18:42:00,44.0,22.0,-100.00,NW,312,5.0,14.0,41,0.00,,,0.00,109.000000,,2013-03-28 22:42:00,
2013-03-28 18:53:00,44.0,22.0,-100.00,NW,312,5.0,14.0,41,0.00,,,0.00,109.000000,,2013-03-28 22:53:00,
2013-03-28 19:03:00,44.0,22.0,-100.00,NW,312,5.0,14.0,41,0.00,,,0.00,109.000000,,2013-03-28 23:03:00,
2013-03-28 19:12:00,44.0,22.0,-100.00,NW,312,5.0,14.0,41,0.00,,,0.00,109.000000,,2013-03-28 23:12:00,
2013-03-28 19:42:00,43.0,22.0,-100.00,WNW,288,4.0,11.0,42,0.00,,,0.00,29.000000,,2013-03-28 23:42:00,
2013-03-28 19:53:00,43.0,22.0,-100.00,WNW,288,4.0,11.0,42,0.00,,,0.00,29.000000,,2013-03-28 23:53:00,
2013-03-28 20:03:00,43.0,22.0,-100.00,WNW,288,4.0,11.0,42,0.00,,,0.00,29.000000,,2013-03-29 00:03:00,
2013-03-28 20:12:00,43.0,22.0,-100.00,WNW,288,4.0,11.0,42,0.00,,,0.00,29.000000,,2013-03-29 00:12:00,
2013-03-28 20:42:00,40.0,24.0,-100.00,ENE,63,2.0,6.0,53,0.00,,,-99.99,3.000000,,2013-03-29 00:42:00,
2013-03-28 20:52:00,40.0,24.0,-100.00,ENE,63,2.0,6.0,53,0.00,,,-99.99,3.000000,,2013-03-29 00:52:00,
2013-03-28 21:02:00,40.0,24.0,-100.00,ENE,63,2.0,6.0,53,0.00,,,-99.99,3.000000,,2013-03-29 01:02:00,
2013-03-28 21:12:00,40.0,24.0,-100.00,ENE,63,2.0,6.0,53,0.00,,,-99.99,3.000000,,2013-03-29 01:12:00,
2013-03-28 21:42:00,38.0,26.0,-100.00,ESE,108,1.0,3.0,62,0.00,,,-99.99,0.000000,,2013-03-29 01:42:00,
2013-03-28 21:53:00,38.0,26.0,-100.00,ESE,108,1.0,3.0,62,0.00,,,-99.99,0.000000,,2013-03-29 01:53:00,
2013-03-28 22:03:00,38.0,26.0,-100.00,ESE,108,1.0,3.0,62,0.00,,,-99.99,0.000000,,2013-03-29 02:03:00,
2013-03-28 22:12:00,38.0,26.0,-100.00,ESE,108,1.0,3.0,62,0.00,,,-99.99,0.000000,,2013-03-29 02:12:00,
2013-03-28 22:42:00,37.0,27.0,-100.00,East,98,0.0,2.0,66,0.00,,,-99.99,0.000000,,2013-03-29 02:42:00,
2013-03-28 22:53:00,37.0,27.0,-100.00,East,98,0.0,2.0,66,0.00,,,-99.99,0.000000,,2013-03-29 02:53:00,
2013-03-28 23:02:00,37.0,27.0,-100.00,East,98,0.0,2.0,66,0.00,,,-99.99,0.000000,,2013-03-29 03:02:00,
2013-03-28 23:12:00,37.0,27.0,-100.00,East,98,0.0,2.0,66,0.00,,,-99.99,0.000000,,2013-03-29 03:12:00,
2013-03-28 23:43:00,37.0,29.0,-100.00,NE,53,1.0,2.0,72,0.00,,,-99.99,0.000000,,2013-03-29 03:43:00,
2013-03-28 23:53:00,37.0,29.0,-100.00,NE,53,1.0,2.0,72,0.00,,,-99.99,0.000000,,2013-03-29 03:53:00,